Harrington Harbour, Canada
Current Conditions -  °F | °C
As of 6:00 AM on Saturday 25 Oct 2014 (Local Time) from CWDH Reporting Station
Clear Clear  
Wind Chill: 30°   Ceiling: Unl
Heat Index: 39°   Visibility: 9mi
Dew Point: 33°   Wind: 15mph
Humidity: 79%   Direction: 50°NE
Pressure: 29.64"   Gusts: NA
Location:  50.52°N, 59.48°W
Report Text: CWDH 250900Z AUTO 05013KT 9SM NSC 04/00 A2964 RMK SLP038 PK WND 06018/// T00370003 WSI/SWOB
Loading
Personal Weather Stations






























Interactive Weather Map
Tropical Storm Tracking
New forecast layout! Learn more

10-Day Weather Forecast

Advertisements
Track Severe Weather on mobile